createdAt,value
2022-08-09T00:02:58.284Z,3.70
2022-08-09T00:08:02.625Z,3.33
2022-08-09T00:13:17.174Z,4.03
2022-08-09T00:18:22.910Z,3.97
2022-08-09T00:23:55.965Z,4.05
2022-08-09T00:28:52.582Z,4.43
2022-08-09T00:33:58.341Z,3.85
2022-08-09T00:39:01.804Z,3.88
2022-08-09T00:44:24.971Z,3.90
2022-08-09T00:49:31.278Z,4.30
2022-08-09T00:54:36.263Z,4.60
2022-08-09T00:59:47.015Z,3.75
2022-08-09T01:05:13.977Z,4.30
2022-08-09T01:10:28.981Z,4.65
2022-08-09T01:15:52.527Z,4.47
2022-08-09T01:21:17.733Z,5.10
2022-08-09T01:26:53.654Z,4.65
2022-08-09T01:32:29.481Z,4.63
2022-08-09T01:38:06.376Z,3.60
2022-08-09T01:42:51.664Z,3.92
2022-08-09T01:47:58.171Z,3.70
2022-08-09T01:53:02.891Z,4.50
2022-08-09T01:58:24.479Z,4.20
2022-08-09T02:03:35.873Z,4.60
2022-08-09T02:08:59.045Z,4.78
2022-08-09T02:14:07.208Z,3.10
2022-08-09T02:19:12.998Z,3.03
2022-08-09T02:24:26.026Z,2.58
2022-08-09T02:29:35.050Z,2.55
2022-08-09T02:34:55.668Z,2.00
2022-08-09T02:40:03.974Z,1.92
2022-08-09T02:45:17.779Z,1.92
2022-08-09T02:50:26.957Z,1.83
2022-08-09T02:55:46.791Z,2.20
2022-08-09T03:00:58.994Z,1.90
2022-08-09T03:06:14.677Z,2.05
2022-08-09T03:12:04.465Z,2.05
2022-08-09T03:16:48.215Z,1.80
2022-08-09T03:21:53.983Z,1.63
2022-08-09T03:26:57.934Z,1.88
2022-08-09T03:32:01.886Z,1.77
2022-08-09T03:37:10.787Z,2.08
2022-08-09T03:42:30.837Z,1.90
2022-08-09T03:47:40.096Z,1.83
2022-08-09T03:52:51.216Z,1.67
2022-08-09T03:58:06.709Z,1.80
2022-08-09T04:03:24.720Z,2.00
2022-08-09T04:08:46.740Z,2.20
2022-08-09T04:14:53.002Z,2.33
2022-08-09T04:19:15.860Z,2.15
2022-08-09T04:24:38.759Z,2.80
2022-08-09T04:29:50.189Z,2.25
2022-08-09T04:34:54.424Z,2.10
2022-08-09T04:40:02.495Z,1.80
2022-08-09T04:45:07.830Z,2.28
2022-08-09T04:50:11.910Z,1.98
2022-08-09T04:55:19.249Z,1.75
2022-08-09T05:00:23.507Z,1.80
2022-08-09T05:05:32.197Z,1.80
2022-08-09T05:10:52.612Z,1.80
2022-08-09T05:15:56.769Z,2.08
2022-08-09T05:21:00.625Z,1.52
2022-08-09T05:26:05.368Z,1.83
2022-08-09T05:31:09.604Z,1.52
2022-08-09T05:36:15.578Z,1.63
2022-08-09T05:41:20.303Z,1.30
2022-08-09T05:46:23.631Z,1.48
2022-08-09T05:51:42.345Z,1.67
2022-08-09T05:56:54.984Z,1.80
2022-08-09T06:01:59.169Z,1.48
2022-08-09T06:07:02.515Z,1.63
2022-08-09T06:12:07.945Z,1.30
2022-08-09T06:17:12.152Z,1.30
2022-08-09T06:22:17.396Z,1.50
2022-08-09T06:27:22.271Z,1.38
2022-08-09T06:32:59.854Z,1.27
2022-08-09T06:38:05.501Z,1.33
2022-08-09T06:43:13.565Z,1.27
2022-08-09T06:48:16.883Z,1.25
2022-08-09T06:53:38.352Z,1.10
2022-08-09T07:00:53.979Z,1.30
2022-08-09T07:04:06.720Z,1.38
2022-08-09T07:09:55.954Z,1.20
2022-08-09T07:14:40.502Z,1.40
2022-08-09T07:19:44.575Z,1.20
2022-08-09T07:24:52.027Z,1.50
2022-08-09T07:35:09.964Z,1.30
2022-08-09T07:40:17.468Z,1.30
2022-08-09T07:45:40.435Z,1.40
2022-08-09T07:50:52.759Z,1.50
2022-08-09T07:56:03.352Z,1.40
2022-08-09T08:01:13.772Z,1.63
2022-08-09T08:06:21.201Z,1.60
2022-08-09T08:12:10.009Z,1.35
2022-08-09T08:17:00.714Z,1.40
2022-08-09T08:22:11.308Z,1.45
2022-08-09T08:27:16.804Z,1.50
2022-08-09T08:32:28.830Z,1.48
2022-08-09T08:37:41.341Z,1.40
2022-08-09T08:42:56.433Z,1.23
2022-08-09T08:48:05.114Z,1.20
2022-08-09T08:53:12.020Z,1.40
2022-08-09T08:58:19.914Z,1.27
2022-08-09T09:03:38.006Z,1.27
2022-08-09T09:08:44.409Z,1.10
2022-08-09T09:13:59.647Z,1.20
2022-08-09T09:19:36.887Z,1.10
2022-08-09T09:24:32.479Z,1.40
2022-08-09T09:30:08.575Z,1.40
2022-08-09T09:35:10.425Z,1.30
2022-08-09T09:40:17.752Z,1.40
2022-08-09T09:45:26.387Z,1.48
2022-08-09T09:50:49.533Z,1.10
2022-08-09T09:56:04.213Z,1.00
2022-08-09T10:01:36.867Z,1.20
2022-08-09T10:06:47.268Z,1.17
2022-08-09T10:12:26.926Z,1.23
2022-08-09T10:17:50.322Z,1.30
2022-08-09T10:22:49.728Z,1.17
2022-08-09T10:27:57.925Z,1.48
2022-08-09T10:33:01.869Z,1.02
2022-08-09T10:38:33.856Z,1.38
2022-08-09T10:43:47.099Z,1.17
2022-08-09T10:49:05.787Z,1.00
2022-08-09T10:54:16.273Z,1.20
2022-08-09T10:59:55.393Z,0.90
2022-08-09T11:05:25.425Z,1.13
2022-08-09T11:11:00.842Z,1.20
2022-08-09T11:16:36.960Z,1.40
2022-08-09T11:22:04.936Z,1.40
2022-08-09T11:27:52.929Z,1.40
2022-08-09T11:33:03.637Z,1.55
2022-08-09T11:38:17.686Z,1.30
2022-08-09T11:43:41.692Z,1.45
2022-08-09T11:48:49.547Z,1.20
2022-08-09T11:54:27.970Z,1.45
2022-08-09T11:59:35.327Z,1.33
2022-08-09T12:04:41.890Z,1.50
2022-08-09T12:09:50.970Z,1.30
2022-08-09T12:15:08.081Z,1.60
2022-08-09T12:20:16.608Z,1.50
2022-08-09T12:25:31.963Z,1.40
2022-08-09T12:30:43.811Z,1.42
2022-08-09T12:35:47.914Z,1.45
2022-08-09T12:40:54.035Z,1.40
2022-08-09T12:46:00.861Z,1.50
2022-08-09T12:51:04.655Z,1.40
2022-08-09T12:56:39.292Z,1.50
2022-08-09T13:01:42.644Z,1.40
2022-08-09T13:06:50.513Z,1.40
2022-08-09T13:12:03.069Z,1.70
2022-08-09T13:17:44.089Z,1.40
2022-08-09T13:23:01.762Z,1.60
2022-08-09T13:28:24.407Z,1.40
2022-08-09T13:33:53.248Z,1.42
2022-08-09T13:39:01.133Z,1.40
2022-08-09T13:44:08.078Z,1.30
2022-08-09T13:54:22.082Z,1.40
2022-08-09T13:59:37.153Z,1.20
2022-08-09T14:04:49.534Z,1.60
2022-08-09T14:10:03.388Z,1.42
2022-08-09T14:16:06.673Z,1.70
2022-08-09T14:20:32.958Z,1.33
2022-08-09T14:25:42.990Z,1.58
2022-08-09T14:30:46.940Z,1.40
2022-08-09T14:35:52.605Z,1.70
2022-08-09T14:41:02.816Z,1.40
2022-08-09T14:46:54.550Z,1.40
2022-08-09T14:51:45.285Z,1.58
2022-08-09T14:56:57.948Z,1.50
2022-08-09T15:02:02.641Z,1.80
2022-08-09T15:07:10.041Z,1.58
2022-08-09T15:12:13.755Z,1.60
2022-08-09T15:17:17.436Z,1.45
2022-08-09T15:22:22.583Z,1.60
2022-08-09T15:27:29.922Z,1.60
2022-08-09T15:32:51.416Z,1.90
2022-08-09T15:38:11.140Z,1.70
2022-08-09T15:43:15.703Z,1.80
2022-08-09T15:48:28.272Z,1.73
2022-08-09T15:54:07.401Z,1.73
2022-08-09T15:58:58.036Z,1.90
2022-08-09T16:04:01.551Z,1.83
2022-08-09T16:14:10.358Z,1.95
2022-08-09T16:19:18.152Z,1.95
2022-08-09T16:24:33.405Z,2.50
2022-08-09T16:29:49.971Z,2.22
2022-08-09T16:34:58.012Z,2.10
2022-08-09T16:40:05.437Z,2.10
2022-08-09T16:45:10.436Z,2.22
2022-08-09T16:50:33.205Z,2.50
2022-08-09T16:55:59.901Z,2.90
2022-08-09T17:01:02.901Z,2.80
2022-08-09T17:06:31.304Z,3.17
2022-08-09T17:11:40.987Z,3.60
2022-08-09T17:16:45.940Z,2.75
2022-08-09T17:21:55.480Z,2.55
2022-08-09T17:27:00.623Z,3.00
2022-08-09T17:32:04.247Z,2.80
2022-08-09T17:37:07.978Z,2.58
2022-08-09T17:42:41.066Z,2.80
2022-08-09T17:47:49.042Z,2.40
2022-08-09T17:52:52.928Z,2.67
2022-08-09T17:58:02.955Z,2.70
2022-08-09T18:03:07.980Z,2.70
2022-08-09T18:08:13.294Z,2.47
2022-08-09T18:13:53.756Z,2.80
2022-08-09T18:18:43.211Z,3.00
2022-08-09T18:24:12.098Z,3.00
2022-08-09T18:30:41.836Z,3.53
2022-08-09T18:34:41.695Z,2.90
2022-08-09T18:39:48.472Z,2.75
2022-08-09T18:44:53.526Z,2.95
2022-08-09T18:50:02.943Z,2.80
2022-08-09T18:55:13.538Z,3.88
2022-08-09T19:00:20.572Z,8.05
2022-08-09T19:05:41.489Z,3.47
2022-08-09T19:10:48.006Z,3.35
2022-08-09T19:15:55.820Z,3.67
2022-08-09T19:21:00.629Z,3.30
2022-08-09T19:26:05.163Z,3.30
2022-08-09T19:31:10.314Z,3.63
2022-08-09T19:36:13.696Z,4.25
2022-08-09T19:41:33.467Z,3.97
2022-08-09T19:46:50.864Z,5.05
2022-08-09T19:51:57.514Z,5.80
2022-08-09T19:57:01.413Z,5.40
2022-08-09T20:02:18.317Z,5.45
2022-08-09T20:07:56.915Z,5.15
2022-08-09T20:12:54.195Z,5.40
2022-08-09T20:18:00.928Z,4.95
2022-08-09T20:23:04.293Z,5.47
2022-08-09T20:28:12.771Z,4.95
2022-08-09T20:33:17.867Z,8.77
2022-08-09T20:38:33.190Z,5.03
2022-08-09T20:43:45.025Z,5.38
2022-08-09T20:48:49.793Z,4.60
2022-08-09T20:53:53.789Z,4.57
2022-08-09T20:58:58.576Z,4.85
2022-08-09T21:04:07.830Z,4.78
2022-08-09T21:09:41.991Z,4.05
2022-08-09T21:14:49.792Z,4.63
2022-08-09T21:20:17.285Z,4.50
2022-08-09T21:25:37.634Z,4.38
2022-08-09T21:30:41.914Z,4.78
2022-08-09T21:35:52.471Z,4.60
2022-08-09T21:40:56.261Z,4.10
2022-08-09T21:45:59.948Z,5.05
2022-08-09T21:51:13.299Z,4.13
2022-08-09T21:56:42.921Z,4.38
2022-08-09T22:02:00.523Z,4.57
2022-08-09T22:07:06.601Z,4.85
2022-08-09T22:12:18.579Z,3.97
2022-08-09T22:17:27.854Z,4.18
2022-08-09T22:22:36.975Z,4.40
2022-08-09T22:27:40.659Z,4.60
2022-08-09T22:32:45.579Z,4.10
2022-08-09T22:38:03.365Z,4.25
2022-08-09T22:43:20.040Z,4.43
2022-08-09T22:48:35.940Z,4.97
2022-08-09T22:53:58.670Z,4.38
2022-08-09T22:59:55.858Z,4.45
2022-08-09T23:04:32.840Z,4.30
2022-08-09T23:09:38.282Z,4.55
2022-08-09T23:14:42.613Z,4.30
2022-08-09T23:25:11.829Z,4.00
2022-08-09T23:30:15.408Z,4.03
2022-08-09T23:35:18.892Z,4.30
2022-08-09T23:40:23.678Z,4.68
2022-08-09T23:45:37.877Z,4.13
2022-08-09T23:55:49.250Z,4.43
